Capitol Logistics 361


KSEA
Seattle-Tacoma International Airport
Seattle, Washington, US
KMIA
Miami International Airport
Miami, Florida, US

Route Details

Aircraft Information
Primary: Boeing 767-300BDSF
Backup: Not Available
Route Data
Distance: 2411nm
Sched. Duration: 5h 40m
Avg. Duration: 5h 24m (-16m)
Times Flown: 6
Recm'd Route: SEA NORMY J90 MWH DLN DDY BFF SGF MEM MGM SZW PLYER JUULI SSCOT5
Planned Altitude: 35,000ft
Origin Wx: KSEA 311253Z 17009KT 6SM BR OVC010 10/08 A3000 RMK AO2 RAB16E38 SLP165 P0001 T01000083
Dest. Wx: KMIA 311253Z 12007KT 100V170 10SM SCT022 BKN035 BKN250 28/23 A3003 RMK AO2 SLP170 T02830233
Notes:

Financial History
Total Freight: 565,171lbs
Average Load: 94,195lbs/flt
Fuel Used: 349,356lbs
Avg. Fuel Used: 58,226lbs/flt
Fuel Expense: $391,279
Avg. Fuel Expense: $65,213
Avg. Fuel Cost: $1.12/lbs
Total Gross Income: $956,139
Pilot Pay: $1,184
Total Expenses: $103,575
Total Revenue: $453,137
Average Revenue: $159,356.48